createdAt,value
2023-04-18T00:01:10.122Z,16.81
2023-04-18T00:03:38.496Z,16.85
2023-04-18T00:06:06.381Z,16.88
2023-04-18T00:08:36.259Z,16.92
2023-04-18T00:11:03.428Z,16.95
2023-04-18T00:13:30.379Z,16.95
2023-04-18T00:15:57.519Z,16.96
2023-04-18T00:18:26.786Z,16.93
2023-04-18T00:20:54.750Z,16.92
2023-04-18T00:23:22.536Z,16.93
2023-04-18T00:25:49.496Z,16.97
2023-04-18T00:28:16.590Z,16.99
2023-04-18T00:30:43.668Z,16.98
2023-04-18T00:33:10.952Z,16.94
2023-04-18T00:35:38.723Z,16.96
2023-04-18T00:38:08.751Z,16.99
2023-04-18T00:40:36.487Z,17.02
2023-04-18T00:43:03.637Z,17.02
2023-04-18T00:45:30.819Z,17.04
2023-04-18T00:48:00.321Z,17.05
2023-04-18T00:50:27.656Z,17.04
2023-04-18T00:52:54.965Z,17.03
2023-04-18T00:55:22.645Z,17.06
2023-04-18T00:57:49.901Z,17.02
2023-04-18T01:00:17.147Z,17.03
2023-04-18T01:02:44.597Z,17.02
2023-04-18T01:05:12.098Z,17.00
2023-04-18T01:07:42.168Z,17.00
2023-04-18T01:10:11.218Z,16.98
2023-04-18T01:12:38.231Z,16.98
2023-04-18T01:15:06.331Z,17.00
2023-04-18T01:17:35.614Z,17.00
2023-04-18T01:20:06.078Z,17.02
2023-04-18T01:22:33.942Z,16.99
2023-04-18T01:25:01.054Z,16.99
2023-04-18T01:27:28.298Z,16.96
2023-04-18T01:29:55.213Z,16.96
2023-04-18T01:32:22.481Z,16.95
2023-04-18T01:34:49.517Z,16.95
2023-04-18T01:37:16.532Z,16.93
2023-04-18T01:39:43.495Z,16.91
2023-04-18T01:42:11.744Z,16.88
2023-04-18T01:44:38.810Z,16.84
2023-04-18T01:47:06.021Z,16.77
2023-04-18T01:49:33.107Z,16.81
2023-04-18T01:52:00.145Z,16.80
2023-04-18T01:54:27.097Z,16.80
2023-04-18T01:56:55.590Z,16.80
2023-04-18T01:59:22.520Z,16.77
2023-04-18T02:01:49.492Z,16.76
2023-04-18T02:04:17.762Z,16.73
2023-04-18T02:06:46.639Z,16.72
2023-04-18T02:09:13.558Z,16.71
2023-04-18T02:11:42.942Z,16.68
2023-04-18T02:14:12.900Z,16.67
2023-04-18T02:16:40.041Z,16.65
2023-04-18T02:19:07.094Z,16.61
2023-04-18T02:21:34.384Z,16.60
2023-04-18T02:24:01.390Z,16.58
2023-04-18T02:26:28.317Z,16.56
2023-04-18T02:28:58.885Z,16.53
2023-04-18T02:31:26.145Z,16.50
2023-04-18T02:33:53.226Z,16.48
2023-04-18T02:36:21.907Z,16.46
2023-04-18T02:38:48.886Z,16.47
2023-04-18T02:41:19.528Z,16.50
2023-04-18T02:43:47.202Z,16.46
2023-04-18T02:46:15.815Z,16.47
2023-04-18T02:48:45.582Z,16.46
2023-04-18T02:51:13.750Z,16.44
2023-04-18T02:53:41.577Z,16.42
2023-04-18T02:56:08.909Z,16.40
2023-04-18T02:58:56.155Z,16.38
2023-04-18T03:01:56.578Z,16.34
2023-04-18T03:04:24.022Z,16.33
2023-04-18T03:07:00.485Z,16.30
2023-04-18T03:09:30.133Z,16.27
2023-04-18T03:12:02.531Z,16.23
2023-04-18T03:14:31.644Z,16.23
2023-04-18T03:16:59.797Z,16.21
2023-04-18T03:19:32.217Z,16.20
2023-04-18T03:22:06.182Z,16.16
2023-04-18T03:24:35.941Z,16.20
2023-04-18T03:27:05.598Z,16.17
2023-04-18T03:29:33.507Z,16.19
2023-04-18T03:32:01.373Z,16.18
2023-04-18T03:34:28.592Z,16.14
2023-04-18T03:36:56.179Z,16.14
2023-04-18T03:39:23.784Z,16.13
2023-04-18T03:41:52.691Z,16.14
2023-04-18T03:44:20.180Z,16.14
2023-04-18T03:46:47.244Z,16.14
2023-04-18T03:49:14.204Z,16.17
2023-04-18T03:51:49.999Z,16.17
2023-04-18T03:54:18.796Z,16.09
2023-04-18T03:56:46.025Z,16.14
2023-04-18T03:59:14.252Z,16.12
2023-04-18T04:01:45.069Z,16.10
2023-04-18T04:04:14.202Z,16.12
2023-04-18T04:06:41.969Z,16.16
2023-04-18T04:09:08.937Z,16.17
2023-04-18T04:11:36.610Z,16.20
2023-04-18T04:14:04.392Z,16.21
2023-04-18T04:16:38.880Z,16.18
2023-04-18T04:19:07.035Z,16.18
2023-04-18T04:21:40.319Z,16.18
2023-04-18T04:24:10.704Z,16.18
2023-04-18T04:26:43.452Z,16.15
2023-04-18T04:29:19.078Z,16.14
2023-04-18T04:31:47.929Z,16.15
2023-04-18T04:34:22.384Z,16.10
2023-04-18T04:36:49.430Z,16.06
2023-04-18T04:39:17.610Z,16.08
2023-04-18T04:42:07.760Z,16.07
2023-04-18T04:44:47.418Z,16.10
2023-04-18T04:47:15.657Z,16.11
2023-04-18T04:49:42.572Z,16.09
2023-04-18T04:52:10.009Z,16.10
2023-04-18T04:54:37.007Z,16.06
2023-04-18T04:57:06.080Z,16.07
2023-04-18T04:59:33.050Z,16.05
2023-04-18T05:02:01.109Z,16.04
2023-04-18T05:04:28.256Z,16.02
2023-04-18T05:06:55.646Z,16.00
2023-04-18T05:09:22.648Z,16.02
2023-04-18T05:11:49.622Z,16.04
2023-04-18T05:14:17.897Z,16.06
2023-04-18T05:16:44.902Z,16.06
2023-04-18T05:19:11.811Z,16.07
2023-04-18T05:21:39.247Z,16.08
2023-04-18T05:24:06.165Z,16.08
2023-04-18T05:26:33.191Z,16.09
2023-04-18T05:29:00.199Z,16.06
2023-04-18T05:31:27.798Z,16.10
2023-04-18T05:33:54.821Z,16.11
2023-04-18T05:36:22.594Z,16.11
2023-04-18T05:38:49.623Z,16.12
2023-04-18T05:41:16.594Z,16.13
2023-04-18T05:43:48.240Z,16.09
2023-04-18T05:46:21.474Z,16.14
2023-04-18T05:48:48.434Z,16.21
2023-04-18T05:51:15.419Z,16.24
2023-04-18T05:53:42.320Z,16.27
2023-04-18T05:56:09.391Z,16.34
2023-04-18T05:58:36.331Z,16.37
2023-04-18T06:01:03.404Z,16.45
2023-04-18T06:03:31.162Z,16.51
2023-04-18T06:05:58.741Z,16.57
2023-04-18T06:08:25.957Z,16.60
2023-04-18T06:10:53.215Z,16.66
2023-04-18T06:13:20.179Z,16.68
2023-04-18T06:15:47.145Z,16.72
2023-04-18T06:18:14.104Z,16.77
2023-04-18T06:20:42.214Z,16.81
2023-04-18T06:23:09.632Z,16.85
2023-04-18T06:25:36.733Z,16.92
2023-04-18T06:28:03.760Z,17.02
2023-04-18T06:30:30.825Z,17.14
2023-04-18T06:32:57.807Z,17.27
2023-04-18T06:35:26.463Z,17.34
2023-04-18T06:37:53.843Z,17.40
2023-04-18T06:40:20.778Z,17.50
2023-04-18T06:42:47.648Z,17.57
2023-04-18T06:45:14.708Z,17.55
2023-04-18T06:47:41.685Z,17.56
2023-04-18T06:50:09.397Z,17.53
2023-04-18T06:52:40.682Z,17.58
2023-04-18T06:55:09.399Z,17.61
2023-04-18T06:57:36.498Z,17.69
2023-04-18T07:00:05.413Z,17.74
2023-04-18T07:02:32.683Z,17.77
2023-04-18T07:04:59.706Z,17.80
2023-04-18T07:07:26.662Z,17.84
2023-04-18T07:09:54.118Z,17.92
2023-04-18T07:12:21.454Z,17.97
2023-04-18T07:14:48.406Z,18.05
2023-04-18T07:17:15.726Z,18.15
2023-04-18T07:19:42.776Z,18.33
2023-04-18T07:22:10.108Z,18.52
2023-04-18T07:24:39.137Z,18.77
2023-04-18T07:27:07.421Z,19.16
2023-04-18T07:29:34.387Z,19.76
2023-04-18T07:32:01.304Z,19.87
2023-04-18T07:34:30.041Z,19.88
2023-04-18T07:37:00.203Z,20.04
2023-04-18T07:39:27.342Z,20.06
2023-04-18T07:41:54.369Z,20.05
2023-04-18T07:44:22.019Z,20.08
2023-04-18T07:46:49.308Z,20.07
2023-04-18T07:49:16.784Z,20.13
2023-04-18T07:51:43.855Z,20.26
2023-04-18T07:54:11.290Z,21.06
2023-04-18T07:56:38.321Z,21.43
2023-04-18T07:59:05.453Z,21.45
2023-04-18T08:01:32.504Z,22.10
2023-04-18T08:04:02.164Z,22.16
2023-04-18T08:06:29.885Z,23.66
2023-04-18T08:08:59.094Z,24.36
2023-04-18T08:11:26.712Z,25.26
2023-04-18T08:13:53.582Z,25.76
2023-04-18T08:16:20.858Z,26.30
2023-04-18T08:18:47.784Z,27.01
2023-04-18T08:21:15.083Z,26.68
2023-04-18T08:23:42.014Z,26.34
2023-04-18T08:26:08.941Z,25.85
2023-04-18T08:28:35.801Z,26.07
2023-04-18T08:31:02.847Z,26.51
2023-04-18T08:33:30.602Z,27.13
2023-04-18T08:35:57.573Z,27.40
2023-04-18T08:38:24.526Z,28.39
2023-04-18T08:40:51.504Z,28.57
2023-04-18T08:43:18.396Z,29.03
2023-04-18T08:45:45.935Z,29.66
2023-04-18T08:48:16.893Z,29.83
2023-04-18T08:50:44.911Z,29.40
2023-04-18T08:53:12.336Z,28.26
2023-04-18T08:55:40.644Z,28.18
2023-04-18T08:58:08.057Z,27.97
2023-04-18T09:00:35.364Z,27.39
2023-04-18T09:03:04.069Z,27.29
2023-04-18T09:05:31.218Z,27.56
2023-04-18T09:07:58.219Z,28.00
2023-04-18T09:10:33.434Z,28.02
2023-04-18T09:13:03.755Z,27.65
2023-04-18T09:15:31.336Z,27.44
2023-04-18T09:18:02.437Z,27.21
2023-04-18T09:20:38.042Z,27.11
2023-04-18T09:23:10.997Z,27.85
2023-04-18T09:25:46.861Z,28.05
2023-04-18T09:28:31.360Z,28.15
2023-04-18T09:31:09.507Z,27.01
2023-04-18T09:33:37.617Z,27.85
2023-04-18T09:36:27.322Z,27.91
2023-04-18T09:38:56.874Z,28.03
2023-04-18T09:41:24.475Z,27.86
2023-04-18T09:44:10.842Z,27.41
2023-04-18T09:46:39.466Z,27.44
2023-04-18T09:49:07.901Z,26.72
2023-04-18T09:51:36.781Z,26.21
2023-04-18T09:54:05.702Z,25.58
2023-04-18T09:56:34.642Z,24.87
2023-04-18T09:59:11.778Z,24.18
2023-04-18T10:01:42.138Z,23.50
2023-04-18T10:04:10.432Z,23.16
2023-04-18T10:06:42.174Z,22.78
2023-04-18T10:09:10.331Z,22.67
2023-04-18T10:11:37.570Z,22.40
2023-04-18T10:14:10.022Z,22.40
2023-04-18T10:16:38.844Z,22.52
2023-04-18T10:19:21.251Z,22.47
2023-04-18T10:21:56.189Z,21.89
2023-04-18T10:24:55.187Z,21.76
2023-04-18T10:27:49.892Z,21.55
2023-04-18T10:30:17.485Z,21.24
2023-04-18T10:32:46.948Z,21.41
2023-04-18T10:35:14.037Z,21.22
2023-04-18T10:38:17.499Z,21.24
2023-04-18T10:40:45.846Z,21.39
2023-04-18T10:43:13.450Z,21.67
2023-04-18T10:45:40.483Z,21.84
2023-04-18T10:48:25.034Z,22.10
2023-04-18T10:51:18.401Z,21.97
2023-04-18T10:53:53.150Z,21.91
2023-04-18T10:56:20.743Z,21.78
2023-04-18T10:58:52.897Z,21.75
2023-04-18T11:01:32.362Z,21.52
2023-04-18T11:04:00.742Z,21.32
2023-04-18T11:06:28.621Z,21.27
2023-04-18T11:09:12.273Z,21.18
2023-04-18T11:11:39.472Z,21.14
2023-04-18T11:14:06.468Z,21.01
2023-04-18T11:16:34.656Z,20.93
2023-04-18T11:19:17.372Z,20.61
2023-04-18T11:21:44.639Z,20.52
2023-04-18T11:24:11.718Z,20.26
2023-04-18T11:26:39.033Z,20.20
2023-04-18T11:29:06.591Z,20.15
2023-04-18T11:31:33.531Z,20.08
2023-04-18T11:34:02.022Z,19.98
2023-04-18T11:36:29.091Z,19.93
2023-04-18T11:38:56.710Z,19.87
2023-04-18T11:41:24.094Z,19.81
2023-04-18T11:43:51.691Z,19.72
2023-04-18T11:46:18.823Z,19.75
2023-04-18T11:48:46.723Z,19.76
2023-04-18T11:51:38.542Z,19.73
2023-04-18T11:54:05.889Z,19.79
2023-04-18T11:56:34.600Z,19.87
2023-04-18T11:59:10.044Z,20.01
2023-04-18T12:01:36.966Z,20.28
2023-04-18T12:04:08.480Z,20.22
2023-04-18T12:06:48.074Z,20.01
2023-04-18T12:09:16.460Z,20.08
2023-04-18T12:11:43.690Z,19.85
2023-04-18T12:14:23.005Z,19.76
2023-04-18T12:16:50.880Z,19.88
2023-04-18T12:19:20.678Z,19.79
2023-04-18T12:22:02.318Z,19.92
2023-04-18T12:24:29.548Z,19.89
2023-04-18T12:26:58.242Z,19.93
2023-04-18T12:29:26.400Z,20.11
2023-04-18T12:31:53.543Z,20.00
2023-04-18T12:34:21.046Z,20.17
2023-04-18T12:36:48.036Z,20.09
2023-04-18T12:39:15.365Z,19.97
2023-04-18T12:41:42.384Z,19.63
2023-04-18T12:44:09.454Z,19.50
2023-04-18T12:46:36.880Z,19.38
2023-04-18T12:49:04.051Z,19.29
2023-04-18T12:51:31.613Z,19.13
2023-04-18T12:53:58.635Z,18.91
2023-04-18T12:56:25.781Z,18.75
2023-04-18T12:58:52.917Z,18.59
2023-04-18T13:01:20.168Z,18.56
2023-04-18T13:03:56.371Z,18.45
2023-04-18T13:06:27.253Z,18.40
2023-04-18T13:08:54.137Z,18.42
2023-04-18T13:11:22.596Z,18.46
2023-04-18T13:13:49.565Z,18.60
2023-04-18T13:16:16.750Z,18.53
2023-04-18T13:18:44.443Z,18.50
2023-04-18T13:21:11.494Z,18.50
2023-04-18T13:23:38.545Z,18.52
2023-04-18T13:26:05.922Z,18.39
2023-04-18T13:28:32.848Z,18.39
2023-04-18T13:30:59.864Z,18.39
2023-04-18T13:33:26.761Z,18.43
2023-04-18T13:35:53.911Z,18.32
2023-04-18T13:38:20.853Z,18.49
2023-04-18T13:40:48.570Z,18.49
2023-04-18T13:43:16.427Z,18.60
2023-04-18T13:45:49.430Z,18.61
2023-04-18T13:48:17.497Z,18.43
2023-04-18T13:50:44.469Z,18.49
2023-04-18T13:53:11.561Z,18.53
2023-04-18T13:55:38.486Z,18.50
2023-04-18T13:58:06.333Z,18.38
2023-04-18T14:00:34.579Z,18.52
2023-04-18T14:03:02.589Z,18.35
2023-04-18T14:05:29.749Z,18.43
2023-04-18T14:08:02.475Z,18.33
2023-04-18T14:10:31.347Z,18.27
2023-04-18T14:12:58.253Z,18.39
2023-04-18T14:15:25.989Z,18.43
2023-04-18T14:17:54.969Z,18.68
2023-04-18T14:20:26.651Z,18.94
2023-04-18T14:22:53.916Z,18.93
2023-04-18T14:25:21.165Z,18.98
2023-04-18T14:27:48.793Z,19.29
2023-04-18T14:30:16.781Z,19.21
2023-04-18T14:32:43.826Z,19.43
2023-04-18T14:35:10.818Z,19.11
2023-04-18T14:37:42.333Z,19.28
2023-04-18T14:40:11.632Z,19.32
2023-04-18T14:42:38.956Z,19.13
2023-04-18T14:45:08.511Z,19.10
2023-04-18T14:47:35.951Z,18.89
2023-04-18T14:50:03.017Z,18.79
2023-04-18T14:52:33.339Z,18.77
2023-04-18T14:55:00.350Z,18.68
2023-04-18T14:57:29.698Z,18.68
2023-04-18T14:59:56.889Z,18.70
2023-04-18T15:02:24.159Z,18.73
2023-04-18T15:04:51.799Z,18.66
2023-04-18T15:07:18.980Z,18.79
2023-04-18T15:09:45.997Z,18.59
2023-04-18T15:12:12.945Z,18.51
2023-04-18T15:14:40.064Z,18.15
2023-04-18T15:17:07.064Z,18.31
2023-04-18T15:19:34.598Z,18.20
2023-04-18T15:22:02.358Z,18.07
2023-04-18T15:24:29.376Z,18.08
2023-04-18T15:26:57.519Z,18.05
2023-04-18T15:29:24.866Z,17.99
2023-04-18T15:31:51.834Z,17.85
2023-04-18T15:34:18.929Z,17.90
2023-04-18T15:36:49.249Z,17.76
2023-04-18T15:39:20.288Z,17.64
2023-04-18T15:41:47.450Z,17.71
2023-04-18T15:44:16.791Z,17.75
2023-04-18T15:46:43.666Z,17.80
2023-04-18T15:49:10.985Z,17.73
2023-04-18T15:51:38.104Z,17.69
2023-04-18T15:54:05.180Z,17.61
2023-04-18T15:56:33.654Z,17.67
2023-04-18T15:59:04.746Z,17.59
2023-04-18T16:01:33.194Z,17.56
2023-04-18T16:04:00.487Z,17.60
2023-04-18T16:06:27.722Z,17.59
2023-04-18T16:08:54.641Z,17.61
2023-04-18T16:11:21.962Z,17.55
2023-04-18T16:13:49.073Z,17.53
2023-04-18T16:16:16.096Z,17.65
2023-04-18T16:18:43.091Z,17.60
2023-04-18T16:21:15.017Z,17.53
2023-04-18T16:23:42.245Z,17.54
2023-04-18T16:26:09.331Z,17.55
2023-04-18T16:28:39.252Z,17.66
2023-04-18T16:31:06.594Z,17.62
2023-04-18T16:33:33.652Z,17.58
2023-04-18T16:36:04.679Z,17.59
2023-04-18T16:38:31.910Z,17.54
2023-04-18T16:41:00.696Z,17.55
2023-04-18T16:43:29.787Z,17.56
2023-04-18T16:45:57.752Z,17.65
2023-04-18T16:48:25.058Z,17.52
2023-04-18T16:50:52.304Z,17.62
2023-04-18T16:53:19.220Z,17.67
2023-04-18T16:55:46.271Z,17.71
2023-04-18T16:58:13.164Z,17.75
2023-04-18T17:00:40.139Z,17.51
2023-04-18T17:03:08.010Z,17.71
2023-04-18T17:05:35.228Z,17.58
2023-04-18T17:08:03.769Z,17.68
2023-04-18T17:10:31.483Z,17.72
2023-04-18T17:12:59.129Z,17.81
2023-04-18T17:15:26.581Z,17.73
2023-04-18T17:17:53.583Z,17.70
2023-04-18T17:20:20.778Z,17.74
2023-04-18T17:23:00.333Z,17.69
2023-04-18T17:25:32.570Z,17.71
2023-04-18T17:28:02.270Z,17.70
2023-04-18T17:30:29.763Z,17.80
2023-04-18T17:32:56.873Z,17.81
2023-04-18T17:35:23.960Z,17.78
2023-04-18T17:37:51.320Z,17.74
2023-04-18T17:40:20.427Z,17.72
2023-04-18T17:42:47.519Z,17.62
2023-04-18T17:45:14.417Z,17.52
2023-04-18T17:47:41.587Z,17.39
2023-04-18T17:50:08.895Z,17.34
2023-04-18T17:52:35.816Z,17.28
2023-04-18T17:55:02.807Z,17.37
2023-04-18T17:57:30.649Z,17.43
2023-04-18T17:59:57.702Z,17.39
2023-04-18T18:02:25.007Z,17.37
2023-04-18T18:04:52.108Z,17.30
2023-04-18T18:07:18.973Z,17.28
2023-04-18T18:09:46.233Z,17.17
2023-04-18T18:12:13.626Z,17.18
2023-04-18T18:14:41.565Z,17.07
2023-04-18T18:17:08.679Z,17.10
2023-04-18T18:19:38.959Z,17.09
2023-04-18T18:22:07.224Z,17.09
2023-04-18T18:24:34.262Z,16.99
2023-04-18T18:27:01.975Z,17.03
2023-04-18T18:29:30.620Z,16.97
2023-04-18T18:31:57.680Z,16.94
2023-04-18T18:34:24.618Z,16.93
2023-04-18T18:36:52.011Z,17.02
2023-04-18T18:39:19.039Z,16.94
2023-04-18T18:41:46.209Z,16.88
2023-04-18T18:44:13.207Z,16.85
2023-04-18T18:46:41.514Z,16.82
2023-04-18T18:49:10.033Z,16.76
2023-04-18T18:51:37.310Z,16.73
2023-04-18T18:54:04.559Z,16.79
2023-04-18T18:56:31.485Z,16.75
2023-04-18T18:58:58.615Z,16.75
2023-04-18T19:01:25.754Z,16.83
2023-04-18T19:03:52.967Z,16.86
2023-04-18T19:06:20.009Z,16.88
2023-04-18T19:08:46.988Z,16.93
2023-04-18T19:11:16.166Z,16.92
2023-04-18T19:13:43.081Z,16.79
2023-04-18T19:16:10.357Z,16.79
2023-04-18T19:18:37.786Z,16.80
2023-04-18T19:21:25.720Z,16.81
2023-04-18T19:23:56.391Z,16.79
2023-04-18T19:26:23.570Z,16.74
2023-04-18T19:28:50.722Z,16.79
2023-04-18T19:31:17.748Z,16.75
2023-04-18T19:33:44.984Z,16.75
2023-04-18T19:36:12.059Z,16.82
2023-04-18T19:38:39.218Z,16.84
2023-04-18T19:41:06.242Z,16.85
2023-04-18T19:43:34.473Z,16.87
2023-04-18T19:46:01.452Z,16.88
2023-04-18T19:48:28.662Z,16.86
2023-04-18T19:50:57.007Z,16.67
2023-04-18T19:53:24.034Z,16.64
2023-04-18T19:55:51.238Z,16.66
2023-04-18T19:58:49.078Z,16.69
2023-04-18T20:01:18.086Z,16.65
2023-04-18T20:03:47.764Z,16.63
2023-04-18T20:06:58.322Z,16.67
2023-04-18T20:09:31.489Z,16.66
2023-04-18T20:12:01.167Z,16.68
2023-04-18T20:14:29.411Z,16.68
2023-04-18T20:16:57.576Z,16.67
2023-04-18T20:19:29.796Z,16.63
2023-04-18T20:21:59.508Z,16.64
2023-04-18T20:24:28.178Z,16.55
2023-04-18T20:26:55.353Z,16.47
2023-04-18T20:29:22.353Z,16.58
2023-04-18T20:31:49.644Z,16.59
2023-04-18T20:34:16.866Z,16.59
2023-04-18T20:36:45.129Z,16.62
2023-04-18T20:39:18.171Z,16.64
2023-04-18T20:41:49.274Z,16.64
2023-04-18T20:44:17.160Z,16.65
2023-04-18T20:46:44.359Z,16.66
2023-04-18T20:49:12.046Z,16.71
2023-04-18T20:51:39.190Z,16.74
2023-04-18T20:54:06.428Z,16.77
2023-04-18T20:56:33.888Z,16.80
2023-04-18T20:59:00.999Z,16.82
2023-04-18T21:01:28.099Z,16.81
2023-04-18T21:03:57.969Z,16.84
2023-04-18T21:06:25.132Z,16.83
2023-04-18T21:08:52.513Z,16.86
2023-04-18T21:11:19.798Z,16.85
2023-04-18T21:13:46.887Z,16.85
2023-04-18T21:16:16.751Z,16.86
2023-04-18T21:18:44.235Z,16.85
2023-04-18T21:21:12.187Z,16.85
2023-04-18T21:23:45.264Z,16.85
2023-04-18T21:26:13.846Z,16.86
2023-04-18T21:28:54.343Z,16.84
2023-04-18T21:31:21.508Z,16.79
2023-04-18T21:33:52.088Z,16.79
2023-04-18T21:36:19.247Z,16.77
2023-04-18T21:38:46.342Z,16.75
2023-04-18T21:41:19.756Z,16.73
2023-04-18T21:43:47.271Z,16.71
2023-04-18T21:46:14.674Z,16.71
2023-04-18T21:48:44.324Z,16.68
2023-04-18T21:51:13.136Z,16.66
2023-04-18T21:53:40.440Z,16.63
2023-04-18T21:56:08.824Z,16.63
2023-04-18T21:58:36.074Z,16.61
2023-04-18T22:01:03.330Z,16.57
2023-04-18T22:03:32.023Z,16.54
2023-04-18T22:05:59.258Z,16.52
2023-04-18T22:08:38.132Z,16.49
2023-04-18T22:11:05.674Z,16.45
2023-04-18T22:13:36.058Z,16.44
2023-04-18T22:16:09.948Z,16.42
2023-04-18T22:18:40.157Z,16.41
2023-04-18T22:21:09.633Z,16.40
2023-04-18T22:23:39.334Z,16.37
2023-04-18T22:26:09.064Z,16.37
2023-04-18T22:28:38.990Z,16.37
2023-04-18T22:31:09.498Z,16.36
2023-04-18T22:33:39.247Z,16.34
2023-04-18T22:36:06.885Z,16.30
2023-04-18T22:38:33.978Z,16.28
2023-04-18T22:41:01.188Z,16.24
2023-04-18T22:43:30.462Z,16.22
2023-04-18T22:45:57.503Z,16.20
2023-04-18T22:48:24.767Z,16.17
2023-04-18T22:50:51.805Z,16.12
2023-04-18T22:53:24.154Z,16.12
2023-04-18T22:55:51.771Z,16.10
2023-04-18T22:58:18.967Z,16.10
2023-04-18T23:00:46.371Z,16.10
2023-04-18T23:03:13.675Z,16.06
2023-04-18T23:05:41.477Z,16.02
2023-04-18T23:08:08.653Z,15.95
2023-04-18T23:10:36.333Z,15.97
2023-04-18T23:13:03.213Z,15.92
2023-04-18T23:15:30.831Z,15.91
2023-04-18T23:17:57.825Z,15.88
2023-04-18T23:20:24.759Z,15.88
2023-04-18T23:22:53.175Z,15.84
2023-04-18T23:25:20.154Z,15.86
2023-04-18T23:27:47.768Z,15.80
2023-04-18T23:30:15.028Z,15.78
2023-04-18T23:32:42.602Z,15.78
2023-04-18T23:35:13.705Z,15.73
2023-04-18T23:37:42.289Z,15.70
2023-04-18T23:40:09.609Z,15.67
2023-04-18T23:42:40.235Z,15.67
2023-04-18T23:45:11.077Z,15.62
2023-04-18T23:47:38.100Z,15.60
2023-04-18T23:50:05.785Z,15.58
2023-04-18T23:52:32.819Z,15.55
2023-04-18T23:55:03.095Z,15.55
2023-04-18T23:57:30.507Z,15.51
2023-04-18T23:59:57.547Z,15.44
